Time;durP1;ratioP1;P1;durP2;ratioP2;P2;SDS_P1;SDS_P2;PMS_P1;PMS_P2;Temp;Humidity;BMP_temperature;BMP_pressure;BME280_temperature;BME280_humidity;BME280_pressure;Samples;Min_cycle;Max_cycle;Signal;HPM_P1;HPM_P2
2023/03/08 00:01:15;;;;;;;4.95;2.65;;;;;;;18.56;36.82;99973.94;5032648;28;20394;-71
2023/03/08 00:03:41;;;;;;;4.57;2.50;;;;;;;18.52;36.80;99961.19;5033660;28;20075;-70
2023/03/08 00:06:09;;;;;;;4.70;2.47;;;;;;;18.52;36.70;99966.44;5034212;28;20444;-69
2023/03/08 00:08:34;;;;;;;3.80;2.33;;;;;;;18.53;36.64;99968.94;5033111;28;20040;-70
2023/03/08 00:11:04;;;;;;;3.97;2.35;;;;;;;18.52;36.75;99977.84;5030727;28;20037;-71
2023/03/08 00:13:29;;;;;;;4.47;2.60;;;;;;;18.49;36.59;99970.25;5032691;28;20033;-70
2023/03/08 00:15:59;;;;;;;4.30;2.42;;;;;;;18.45;36.69;99966.22;5032555;28;20034;-71
2023/03/08 00:18:24;;;;;;;4.53;2.60;;;;;;;18.45;36.85;99959.16;5024060;28;20481;-72
2023/03/08 00:20:59;;;;;;;4.28;2.42;;;;;;;18.44;36.82;99962.75;5034265;28;20071;-70
2023/03/08 00:23:25;;;;;;;5.30;2.45;;;;;;;18.44;36.68;99968.03;5033531;28;20469;-71
2023/03/08 00:25:53;;;;;;;4.30;2.22;;;;;;;18.44;36.47;99972.50;5033453;28;20041;-70
2023/03/08 00:28:19;;;;;;;4.05;2.30;;;;;;;18.41;36.63;99973.59;5032655;28;20799;-71
2023/03/08 00:30:44;;;;;;;4.57;2.60;;;;;;;18.45;36.58;99980.25;5026021;28;20021;-70
2023/03/08 00:33:09;;;;;;;5.78;2.38;;;;;;;18.40;36.43;99965.84;5031692;28;20032;-69
2023/03/08 00:35:34;;;;;;;4.88;2.55;;;;;;;18.44;36.52;99977.78;5032375;28;20033;-70
2023/03/08 00:38:00;;;;;;;4.72;2.63;;;;;;;18.38;36.22;99963.34;5032884;28;20041;-70
2023/03/08 00:40:25;;;;;;;6.03;2.40;;;;;;;18.42;36.29;99972.63;5033363;28;20029;-70
2023/03/08 00:42:50;;;;;;;3.72;2.40;;;;;;;18.41;36.23;99970.97;5032491;28;20029;-72
2023/03/08 00:45:15;;;;;;;4.72;2.45;;;;;;;18.38;36.08;99963.34;5032500;28;20034;-72
2023/03/08 00:47:41;;;;;;;4.32;2.45;;;;;;;18.37;36.19;99959.03;5032591;28;20117;-71
2023/03/08 00:50:07;;;;;;;4.88;2.72;;;;;;;18.37;36.15;99955.59;5024207;28;20036;-72
2023/03/08 00:52:32;;;;;;;4.20;2.40;;;;;;;18.35;36.31;99953.09;5033226;28;20452;-71
2023/03/08 00:54:58;;;;;;;3.97;2.38;;;;;;;18.38;36.23;99968.63;5033486;28;20125;-70
2023/03/08 00:57:23;;;;;;;4.43;2.40;;;;;;;18.36;36.20;99967.09;5031500;28;20103;-71
2023/03/08 00:59:48;;;;;;;4.28;2.30;;;;;;;18.33;36.25;99955.06;5033182;28;20470;-72
2023/03/08 01:02:13;;;;;;;5.47;2.80;;;;;;;18.32;36.19;99956.03;5033057;28;20040;-71
2023/03/08 01:04:39;;;;;;;4.28;2.53;;;;;;;18.32;36.18;99961.28;5033038;28;20040;-70
2023/03/08 01:07:04;;;;;;;5.20;2.88;;;;;;;18.34;35.98;99954.09;5033244;28;20033;-71
2023/03/08 01:09:30;;;;;;;5.05;2.97;;;;;;;18.30;36.11;99944.78;5032106;28;20033;-71
2023/03/08 01:11:55;;;;;;;4.75;2.92;;;;;;;18.32;35.98;99940.19;5032340;28;20048;-71
2023/03/08 01:14:20;;;;;;;5.07;2.90;;;;;;;18.32;35.93;99942.84;5031497;28;20041;-71
2023/03/08 01:16:45;;;;;;;5.00;3.08;;;;;;;18.30;35.93;99934.25;5033035;28;20037;-70
2023/03/08 01:19:11;;;;;;;5.03;2.95;;;;;;;18.29;35.91;99928.16;5030602;28;20087;-71
2023/03/08 01:21:37;;;;;;;4.72;2.95;;;;;;;18.29;35.95;99930.78;5030789;28;20041;-72
2023/03/08 01:24:02;;;;;;;4.50;3.05;;;;;;;18.20;35.83;99904.44;5030868;28;20040;-70
2023/03/08 01:26:28;;;;;;;5.03;3.40;;;;;;;18.27;35.89;99914.25;5031380;28;20029;-70
2023/03/08 01:28:53;;;;;;;5.45;3.55;;;;;;;18.21;35.92;99904.28;5031266;28;20032;-71
2023/03/08 01:31:24;;;;;;;5.55;3.45;;;;;;;18.24;36.03;99908.47;5030440;28;20042;-71
2023/03/08 01:33:50;;;;;;;5.70;3.63;;;;;;;18.23;35.91;99901.50;5031168;28;20060;-70
2023/03/08 01:36:19;;;;;;;5.03;3.47;;;;;;;18.25;36.01;99902.22;5031842;28;20194;-71
2023/03/08 01:38:45;;;;;;;6.55;3.97;;;;;;;18.24;35.87;99892.63;5031339;28;20579;-69
2023/03/08 01:41:16;;;;;;;5.22;3.78;;;;;;;18.22;35.85;99890.16;5032564;28;20041;-72
2023/03/08 01:43:42;;;;;;;6.05;4.30;;;;;;;18.21;35.82;99885.00;5031341;28;20033;-71
2023/03/08 01:46:16;;;;;;;5.45;3.78;;;;;;;18.18;35.78;99882.66;5032308;28;20033;-72
2023/03/08 01:49:01;;;;;;;5.55;3.72;;;;;;;18.19;35.75;99881.72;5030540;28;20044;-71
2023/03/08 01:51:35;;;;;;;6.80;4.28;;;;;;;18.21;35.58;99877.09;5031667;28;20052;-70
2023/03/08 01:54:12;;;;;;;6.05;3.90;;;;;;;18.18;35.62;99882.66;5031868;28;20083;-70
2023/03/08 01:56:39;;;;;;;5.43;3.50;;;;;;;18.18;35.38;99878.22;5030848;28;20112;-69
2023/03/08 01:59:05;;;;;;;6.30;4.00;;;;;;;18.13;35.31;99870.78;5031963;28;20038;-71
2023/03/08 02:01:32;;;;;;;6.60;4.43;;;;;;;18.18;35.41;99869.50;5032077;28;20033;-70
2023/03/08 02:03:58;;;;;;;6.72;4.75;;;;;;;18.16;35.60;99872.28;5030792;28;20033;-71
2023/03/08 02:06:23;;;;;;;6.18;4.70;;;;;;;18.15;35.57;99864.50;5028330;28;20802;-71
2023/03/08 02:08:49;;;;;;;6.40;4.65;;;;;;;18.15;35.45;99865.38;5030785;28;20036;-71
2023/03/08 02:11:16;;;;;;;6.15;4.43;;;;;;;18.12;35.44;99868.28;5030896;28;20039;-71
2023/03/08 02:13:42;;;;;;;6.60;4.70;;;;;;;18.11;35.59;99856.91;5031816;28;20033;-70
2023/03/08 02:16:12;;;;;;;6.22;4.57;;;;;;;18.11;35.29;99853.44;5022573;28;20032;-70
2023/03/08 02:18:55;;;;;;;6.32;4.60;;;;;;;18.06;35.52;99839.88;5030715;28;20053;-70
2023/03/08 02:21:21;;;;;;;6.75;4.65;;;;;;;18.08;36.86;99836.09;5032515;28;20033;-70
2023/03/08 02:23:46;;;;;;;6.13;4.63;;;;;;;18.11;37.68;99840.25;5031911;28;20029;-69
2023/03/08 02:26:12;;;;;;;8.05;5.20;;;;;;;18.09;38.10;99831.69;5030536;28;20038;-71
2023/03/08 02:28:37;;;;;;;7.72;4.82;;;;;;;18.08;38.43;99830.00;5031474;28;20536;-71
2023/03/08 02:31:03;;;;;;;7.63;5.20;;;;;;;18.09;38.58;99831.69;5029720;28;20825;-71
2023/03/08 02:33:30;;;;;;;8.13;5.40;;;;;;;18.08;38.75;99825.56;5030966;28;20099;-70
2023/03/08 02:35:55;;;;;;;6.90;5.28;;;;;;;18.08;38.91;99824.72;5035268;28;20032;-71
2023/03/08 02:38:21;;;;;;;8.02;5.85;;;;;;;18.05;38.84;99820.56;5034431;28;20374;-70
2023/03/08 02:40:50;;;;;;;6.78;5.07;;;;;;;18.02;39.29;99806.88;5034067;28;20061;-71
2023/03/08 02:43:16;;;;;;;6.55;4.93;;;;;;;18.03;39.38;99825.16;5034180;28;20025;-70
2023/03/08 02:45:41;;;;;;;7.18;5.30;;;;;;;18.02;39.51;99818.22;5034858;28;20038;-72
2023/03/08 02:48:07;;;;;;;7.05;5.10;;;;;;;17.97;39.53;99809.13;5033974;28;20038;-70
2023/03/08 02:50:32;;;;;;;6.65;5.15;;;;;;;17.99;39.56;99812.44;5034314;28;20394;-71
2023/03/08 02:52:58;;;;;;;7.10;5.30;;;;;;;17.97;40.03;99811.75;5025016;28;20992;-71
2023/03/08 02:55:23;;;;;;;7.20;5.18;;;;;;;17.97;39.93;99804.66;5034386;28;20033;-72
2023/03/08 02:57:49;;;;;;;7.28;5.30;;;;;;;17.94;40.09;99797.91;5033395;28;20120;-71
2023/03/08 03:00:14;;;;;;;7.32;4.85;;;;;;;17.94;40.02;99803.19;5034814;28;20120;-71
2023/03/08 03:02:40;;;;;;;7.22;4.95;;;;;;;17.97;40.00;99806.50;5033986;28;20108;-71
2023/03/08 03:05:07;;;;;;;6.90;5.30;;;;;;;17.95;40.35;99796.91;5034357;28;20440;-71
2023/03/08 03:07:41;;;;;;;8.02;4.90;;;;;;;17.91;40.39;99792.94;5034305;28;20083;-69
2023/03/08 03:10:09;;;;;;;6.30;4.95;;;;;;;17.91;40.42;99787.66;5033641;28;20098;-72
2023/03/08 03:12:34;;;;;;;7.32;5.22;;;;;;;17.92;40.37;99767.38;5033134;28;20036;-70
2023/03/08 03:15:01;;;;;;;7.50;4.70;;;;;;;17.93;40.37;99790.16;5033618;28;20507;-70
2023/03/08 03:17:27;;;;;;;7.25;5.10;;;;;;;17.90;40.50;99775.44;5033464;28;20164;-71
2023/03/08 03:19:52;;;;;;;6.50;4.75;;;;;;;17.89;40.45;99776.41;5034833;28;20484;-70
2023/03/08 03:22:18;;;;;;;6.78;4.85;;;;;;;17.87;40.66;99767.81;5034161;28;20073;-70
2023/03/08 03:24:43;;;;;;;8.00;4.97;;;;;;;17.85;40.86;99761.00;5032105;28;20049;-70
2023/03/08 03:27:08;;;;;;;7.33;5.43;;;;;;;17.88;40.71;99766.03;5034436;28;20033;-70
2023/03/08 03:29:36;;;;;;;8.52;5.00;;;;;;;17.85;40.97;99753.97;5034460;28;20261;-71
2023/03/08 03:32:01;;;;;;;7.28;5.20;;;;;;;17.83;40.90;99742.75;5031927;28;20104;-72
2023/03/08 03:34:26;;;;;;;7.35;4.97;;;;;;;17.86;41.12;99742.41;5032592;28;20565;-71
2023/03/08 03:36:52;;;;;;;6.38;4.78;;;;;;;17.82;40.85;99721.81;5033734;28;20546;-69
2023/03/08 03:39:17;;;;;;;7.45;5.13;;;;;;;17.84;41.25;99727.75;5033368;28;20060;-70
2023/03/08 03:41:42;;;;;;;7.65;5.57;;;;;;;17.85;41.05;99732.88;5033460;28;20060;-70
2023/03/08 03:44:07;;;;;;;7.20;5.45;;;;;;;17.83;41.20;99732.19;5033334;28;20029;-70
2023/03/08 03:46:33;;;;;;;7.45;5.45;;;;;;;17.83;41.05;99732.19;5030878;28;20037;-70
2023/03/08 03:48:58;;;;;;;8.15;5.70;;;;;;;17.83;41.34;99728.72;5030254;28;20033;-70
2023/03/08 03:51:24;;;;;;;7.40;5.07;;;;;;;17.82;41.54;99732.34;5030292;28;20029;-70
2023/03/08 03:53:50;;;;;;;8.30;6.07;;;;;;;17.81;41.20;99728.88;5032978;28;20537;-71
2023/03/08 03:56:21;;;;;;;8.95;5.75;;;;;;;17.77;41.44;99714.34;5032933;28;20107;-71
2023/03/08 03:58:46;;;;;;;7.15;5.18;;;;;;;17.78;41.45;99708.06;5034078;28;20051;-71
2023/03/08 04:01:17;;;;;;;8.40;5.55;;;;;;;17.81;41.40;99722.78;5032189;28;20163;-70
2023/03/08 04:03:43;;;;;;;7.75;5.53;;;;;;;17.80;41.41;99713.19;5032729;28;20049;-70
2023/03/08 04:06:12;;;;;;;7.47;5.40;;;;;;;17.71;41.53;99704.41;5033144;28;20232;-71
2023/03/08 04:08:41;;;;;;;7.22;5.25;;;;;;;17.79;41.56;99708.94;5032879;28;20041;-72
2023/03/08 04:11:12;;;;;;;6.80;4.88;;;;;;;17.74;41.71;99698.84;5032996;28;20073;-69
2023/03/08 04:13:38;;;;;;;6.80;5.07;;;;;;;17.75;41.72;99700.47;5032281;28;20406;-70
2023/03/08 04:16:16;;;;;;;6.75;4.90;;;;;;;17.75;41.94;99696.03;5033468;28;20041;-70
2023/03/08 04:18:42;;;;;;;6.82;4.97;;;;;;;17.74;41.93;99689.09;5032745;28;20445;-70
2023/03/08 04:21:08;;;;;;;6.15;4.97;;;;;;;17.71;41.56;99681.50;5033813;28;20347;-70
2023/03/08 04:23:34;;;;;;;7.53;5.20;;;;;;;17.70;41.92;99665.84;5032210;28;20047;-70
2023/03/08 04:26:00;;;;;;;6.78;4.80;;;;;;;17.71;41.88;99678.06;5032234;28;20042;-71
2023/03/08 04:28:25;;;;;;;6.45;4.75;;;;;;;17.73;41.95;99669.00;5032909;28;20119;-69
2023/03/08 04:30:51;;;;;;;6.38;4.90;;;;;;;17.73;41.78;99674.25;5032245;28;20109;-71
2023/03/08 04:33:16;;;;;;;6.32;4.57;;;;;;;17.71;41.87;99660.41;5031048;28;20091;-70
2023/03/08 04:35:41;;;;;;;5.70;3.97;;;;;;;17.73;41.92;99660.28;5032325;28;20032;-70
2023/03/08 04:38:07;;;;;;;6.60;4.72;;;;;;;17.70;41.86;99656.13;5032190;28;20462;-69
2023/03/08 04:40:32;;;;;;;5.80;4.45;;;;;;;17.70;41.91;99655.31;5032277;28;20804;-70
2023/03/08 04:42:57;;;;;;;6.63;4.35;;;;;;;17.69;41.80;99654.47;5032315;28;20540;-70
2023/03/08 04:45:23;;;;;;;5.90;4.65;;;;;;;17.65;42.01;99634.66;5030714;28;20037;-69
2023/03/08 04:47:48;;;;;;;6.28;4.38;;;;;;;17.70;42.02;99636.84;5035519;28;20433;-69
2023/03/08 04:50:16;;;;;;;6.35;3.95;;;;;;;17.66;42.05;99633.69;5035190;28;20033;-69
2023/03/08 04:52:42;;;;;;;5.65;4.38;;;;;;;17.68;42.13;99633.56;5035260;28;20052;-69
2023/03/08 04:55:07;;;;;;;5.38;3.92;;;;;;;17.64;42.07;99629.56;5034376;28;20041;-68
2023/03/08 04:57:34;;;;;;;7.28;4.30;;;;;;;17.66;42.34;99623.16;5035309;28;20079;-69
2023/03/08 04:59:59;;;;;;;5.90;4.03;;;;;;;17.65;42.33;99624.13;5034823;28;20471;-68
2023/03/08 05:02:24;;;;;;;6.07;4.18;;;;;;;17.63;42.11;99609.47;5036221;28;20098;-68
2023/03/08 05:04:50;;;;;;;5.95;4.15;;;;;;;17.63;42.27;99605.03;5025987;28;20041;-67
2023/03/08 05:07:15;;;;;;;5.43;3.72;;;;;;;17.61;42.17;99595.59;5032731;28;20454;-69
2023/03/08 05:09:40;;;;;;;5.35;3.58;;;;;;;17.65;42.59;99605.69;5021992;28;20057;-69
2023/03/08 05:12:06;;;;;;;5.45;3.80;;;;;;;17.60;42.65;99586.88;5031324;28;20033;-71
2023/03/08 05:14:31;;;;;;;5.43;3.40;;;;;;;17.65;42.54;99597.78;5032684;28;20043;-70
2023/03/08 05:16:56;;;;;;;6.10;3.80;;;;;;;17.64;42.46;99596.16;5032251;28;20032;-71
2023/03/08 05:19:22;;;;;;;5.07;3.50;;;;;;;17.60;41.76;99586.88;5031589;28;20049;-71
2023/03/08 05:21:48;;;;;;;4.75;3.28;;;;;;;17.63;41.07;99583.94;5023132;28;20060;-72
2023/03/08 05:24:13;;;;;;;4.82;3.20;;;;;;;17.63;40.68;99578.69;5031549;28;20437;-70
2023/03/08 05:26:40;;;;;;;4.95;2.90;;;;;;;17.63;40.13;99576.03;5031513;28;21070;-69
2023/03/08 05:29:06;;;;;;;4.80;3.00;;;;;;;17.64;40.40;99577.72;5025771;28;20460;-70
2023/03/08 05:31:32;;;;;;;4.45;2.80;;;;;;;17.61;40.21;99566.63;5030826;28;20030;-70
2023/03/08 05:33:58;;;;;;;4.22;2.60;;;;;;;17.61;40.47;99566.63;5027291;28;20056;-71
2023/03/08 05:36:23;;;;;;;4.40;2.45;;;;;;;17.63;41.22;99559.41;5031913;28;20072;-70
2023/03/08 05:38:53;;;;;;;3.90;2.28;;;;;;;17.66;41.34;99553.84;5031565;28;20477;-70
2023/03/08 05:41:19;;;;;;;3.72;1.98;;;;;;;17.65;41.14;99539.81;5031334;28;20075;-71
2023/03/08 05:43:44;;;;;;;4.15;2.03;;;;;;;17.72;40.63;99532.97;5031784;28;20061;-71
2023/03/08 05:46:12;;;;;;;3.03;1.70;;;;;;;17.71;40.86;99522.59;5031428;28;20033;-71
2023/03/08 05:48:37;;;;;;;3.67;1.80;;;;;;;17.82;40.42;99529.41;5031222;28;20040;-71
2023/03/08 05:51:07;;;;;;;3.45;1.63;;;;;;;17.82;40.39;99518.88;5030617;28;20127;-71
2023/03/08 05:53:33;;;;;;;3.30;1.60;;;;;;;17.90;40.28;99521.59;5031333;28;20088;-71
2023/03/08 05:56:14;;;;;;;3.08;1.52;;;;;;;17.93;40.24;99518.66;5030687;28;20118;-71
2023/03/08 05:58:40;;;;;;;3.17;1.60;;;;;;;17.96;40.03;99507.78;5030899;28;20134;-71
2023/03/08 06:01:18;;;;;;;3.08;1.70;;;;;;;18.00;39.90;99498.56;5032358;28;20494;-71
2023/03/08 06:03:48;;;;;;;4.00;1.63;;;;;;;18.02;39.84;99493.97;5031046;28;20026;-71
2023/03/08 06:06:15;;;;;;;3.00;1.50;;;;;;;18.07;39.61;99499.63;5030979;28;21018;-72
2023/03/08 06:08:41;;;;;;;2.58;1.40;;;;;;;18.08;39.54;99493.34;5031410;28;20079;-72
2023/03/08 06:11:06;;;;;;;2.17;1.30;;;;;;;18.10;39.65;99498.47;5034497;28;20040;-71
2023/03/08 06:13:32;;;;;;;3.55;1.42;;;;;;;18.11;39.59;99497.50;5034363;28;20037;-71
2023/03/08 06:15:59;;;;;;;2.67;1.38;;;;;;;18.14;39.69;99497.19;5034645;28;20037;-71
2023/03/08 06:18:25;;;;;;;2.63;1.30;;;;;;;18.16;39.44;99492.56;5024606;28;20052;-70
2023/03/08 06:20:55;;;;;;;3.17;1.33;;;;;;;18.16;39.51;99491.75;5034162;28;20040;-71
2023/03/08 06:23:21;;;;;;;2.33;1.30;;;;;;;18.19;39.19;99486.97;5024865;28;20037;-71
2023/03/08 06:25:46;;;;;;;3.40;1.40;;;;;;;18.20;39.46;99495.69;5034295;28;20029;-71
2023/03/08 06:28:11;;;;;;;3.30;1.52;;;;;;;18.23;39.19;99490.13;5033952;28;20477;-71
2023/03/08 06:30:37;;;;;;;2.60;1.38;;;;;;;18.22;38.94;99480.56;5034290;28;20038;-70
2023/03/08 06:33:02;;;;;;;3.05;1.40;;;;;;;18.23;39.03;99483.06;5033287;28;20030;-70
2023/03/08 06:35:27;;;;;;;2.15;1.23;;;;;;;18.22;39.15;99480.56;5034392;28;20037;-70
2023/03/08 06:37:53;;;;;;;2.60;1.38;;;;;;;18.24;39.11;99474.13;5033629;28;20052;-71
2023/03/08 06:40:19;;;;;;;2.80;1.40;;;;;;;18.25;38.87;99467.06;5033808;28;20120;-72
2023/03/08 06:42:44;;;;;;;2.35;1.25;;;;;;;18.25;39.15;99465.25;5034384;28;20473;-71
2023/03/08 06:45:10;;;;;;;2.30;1.23;;;;;;;18.25;39.05;99465.25;5033792;28;20033;-71
2023/03/08 06:47:35;;;;;;;2.33;1.23;;;;;;;18.25;39.15;99462.63;5026219;28;20670;-72
2023/03/08 06:50:01;;;;;;;2.75;1.10;;;;;;;18.27;39.14;99473.81;5026887;28;20037;-70
2023/03/08 06:52:26;;;;;;;2.45;1.13;;;;;;;18.28;39.10;99482.59;5034133;28;20032;-71
2023/03/08 06:54:51;;;;;;;1.95;1.10;;;;;;;18.25;38.95;99480.25;5034492;28;20450;-70
2023/03/08 06:57:16;;;;;;;2.50;1.10;;;;;;;18.27;39.33;99483.56;5034424;28;20039;-71
2023/03/08 06:59:42;;;;;;;2.75;1.20;;;;;;;18.29;39.34;99479.78;5034488;28;20082;-72
2023/03/08 07:02:08;;;;;;;1.67;0.90;;;;;;;18.29;39.65;99477.16;5033820;28;20036;-70
2023/03/08 07:04:34;;;;;;;2.72;1.00;;;;;;;18.32;39.80;99481.25;5033586;28;20492;-72
2023/03/08 07:06:59;;;;;;;2.45;1.10;;;;;;;18.28;39.30;99464.94;5033652;28;20029;-71
2023/03/08 07:09:25;;;;;;;2.00;1.00;;;;;;;18.30;39.78;99470.88;5032970;28;20131;-71
2023/03/08 07:11:50;;;;;;;2.45;1.10;;;;;;;18.30;39.91;99456.88;5033406;28;20033;-70
2023/03/08 07:14:15;;;;;;;1.50;0.93;;;;;;;18.31;39.87;99451.44;5033382;28;20048;-70
2023/03/08 07:16:40;;;;;;;3.10;1.27;;;;;;;18.33;39.85;99455.72;5033898;28;20124;-71
2023/03/08 07:19:06;;;;;;;2.45;1.00;;;;;;;18.36;39.95;99455.38;5032943;28;20552;-70
2023/03/08 07:21:31;;;;;;;1.58;0.80;;;;;;;18.33;40.03;99448.63;5033043;28;20040;-71
2023/03/08 07:23:57;;;;;;;2.35;1.10;;;;;;;18.37;40.05;99455.22;5032775;28;20037;-71
2023/03/08 07:26:22;;;;;;;1.83;1.00;;;;;;;18.34;40.14;99444.19;5032784;28;20101;-71
2023/03/08 07:28:49;;;;;;;2.05;1.00;;;;;;;18.37;40.13;99449.13;5033144;28;20481;-71
2023/03/08 07:31:14;;;;;;;2.20;0.90;;;;;;;18.36;40.20;99432.50;5033106;28;20521;-70
2023/03/08 07:33:40;;;;;;;2.22;1.00;;;;;;;18.31;40.29;99425.06;5033392;28;20124;-70
2023/03/08 07:36:05;;;;;;;1.42;0.75;;;;;;;18.37;40.46;99428.03;5032728;28;20068;-71
2023/03/08 07:38:31;;;;;;;1.52;0.90;;;;;;;18.38;40.54;99430.50;5033097;28;20064;-72
2023/03/08 07:40:56;;;;;;;2.75;1.10;;;;;;;18.38;40.62;99424.44;5032639;28;20029;-70
2023/03/08 07:43:22;;;;;;;1.90;0.98;;;;;;;18.39;40.89;99421.63;5032463;28;20034;-71
2023/03/08 07:45:48;;;;;;;2.05;0.90;;;;;;;18.39;40.55;99424.25;5032755;28;20036;-69
2023/03/08 07:48:13;;;;;;;1.80;1.00;;;;;;;18.40;40.56;99417.97;5031431;28;20124;-70
2023/03/08 07:50:39;;;;;;;1.90;0.90;;;;;;;18.44;40.58;99419.31;5031895;28;20045;-71
2023/03/08 07:53:04;;;;;;;1.77;0.90;;;;;;;18.44;40.63;99416.69;5032639;28;20086;-71
2023/03/08 07:55:29;;;;;;;1.58;0.80;;;;;;;18.43;40.65;99408.94;5032659;28;20033;-69
2023/03/08 07:57:55;;;;;;;1.83;0.82;;;;;;;18.38;41.08;99404.13;5032736;28;20035;-70
2023/03/08 08:00:21;;;;;;;1.88;0.90;;;;;;;18.39;41.29;99399.69;5032159;28;20108;-71
2023/03/08 08:02:46;;;;;;;3.28;1.00;;;;;;;18.40;41.23;99390.78;5032503;28;20033;-69
2023/03/08 08:05:12;;;;;;;2.20;0.88;;;;;;;18.41;41.91;99388.00;5032125;28;20037;-69
2023/03/08 08:07:38;;;;;;;2.30;0.77;;;;;;;18.44;41.67;99390.31;5032393;28;20441;-69
2023/03/08 08:10:04;;;;;;;2.47;0.85;;;;;;;18.46;41.80;99398.88;5032165;28;20049;-70
2023/03/08 08:12:29;;;;;;;1.52;0.80;;;;;;;18.48;41.94;99394.28;5032126;28;20039;-71
2023/03/08 08:14:54;;;;;;;1.85;0.90;;;;;;;18.45;41.71;99389.34;5032283;28;20375;-69
2023/03/08 08:17:21;;;;;;;2.25;0.90;;;;;;;18.47;41.62;99391.81;5032085;28;20045;-69
2023/03/08 08:19:47;;;;;;;2.00;0.80;;;;;;;18.46;41.67;99377.78;5032010;28;20063;-69
2023/03/08 08:22:12;;;;;;;1.92;0.93;;;;;;;18.48;41.79;99373.19;5031650;28;20041;-70
2023/03/08 08:24:39;;;;;;;1.50;0.80;;;;;;;18.47;41.75;99360.16;5030822;28;20582;-69
2023/03/08 08:27:04;;;;;;;1.65;0.90;;;;;;;18.47;41.78;99360.16;5032018;28;20116;-69
2023/03/08 08:29:30;;;;;;;1.73;0.80;;;;;;;18.45;42.06;99355.03;5031622;28;20088;-70
2023/03/08 08:31:56;;;;;;;2.08;1.00;;;;;;;18.48;41.94;99356.50;5021191;28;20025;-69
2023/03/08 08:34:21;;;;;;;3.58;0.90;;;;;;;18.44;42.17;99353.38;4982874;28;20045;-69
2023/03/08 08:36:46;;;;;;;2.67;0.80;;;;;;;18.44;42.05;99342.81;5034869;28;20029;-69
2023/03/08 08:39:12;;;;;;;1.80;0.90;;;;;;;18.48;42.09;99332.78;5030215;28;20033;-69
2023/03/08 08:41:37;;;;;;;3.20;1.00;;;;;;;18.50;42.35;99338.72;5022823;28;20317;-69
2023/03/08 08:44:02;;;;;;;1.73;0.80;;;;;;;18.48;42.40;99330.97;5031210;28;20037;-70
2023/03/08 08:46:30;;;;;;;2.97;1.00;;;;;;;18.52;42.46;99338.53;5031450;28;20033;-69
2023/03/08 08:48:58;;;;;;;2.55;0.90;;;;;;;18.49;42.41;99340.53;5031426;28;20029;-71
2023/03/08 08:51:23;;;;;;;4.70;1.02;;;;;;;18.50;42.61;99344.00;5021375;28;20504;-69
2023/03/08 08:53:49;;;;;;;2.45;1.05;;;;;;;18.49;42.38;99345.78;5029515;28;20036;-70
2023/03/08 08:56:17;;;;;;;1.90;0.80;;;;;;;18.49;42.41;99342.34;5031400;28;20396;-70
2023/03/08 08:58:43;;;;;;;1.88;0.80;;;;;;;18.52;42.55;99357.84;5031148;28;20033;-70
2023/03/08 09:01:13;;;;;;;3.30;0.98;;;;;;;18.53;42.65;99371.84;5031395;28;20102;-71
2023/03/08 09:03:39;;;;;;;1.40;0.82;;;;;;;18.52;42.76;99365.75;5029352;28;20036;-71
2023/03/08 09:06:04;;;;;;;1.98;0.90;;;;;;;18.54;42.75;99369.06;5029703;28;20029;-75
2023/03/08 09:08:29;;;;;;;3.13;1.13;;;;;;;18.59;43.33;99379.94;5031240;28;20037;-70
2023/03/08 09:10:55;;;;;;;3.33;1.15;;;;;;;18.58;43.60;99370.38;5030023;28;20114;-70
2023/03/08 09:13:20;;;;;;;2.80;1.00;;;;;;;18.65;43.44;99360.00;5027443;28;20044;-73
2023/03/08 09:15:45;;;;;;;2.67;1.10;;;;;;;18.69;43.62;99340.19;5030785;28;20115;-76
2023/03/08 09:18:11;;;;;;;2.58;1.08;;;;;;;18.68;43.07;99330.66;5029919;28;20045;-71
2023/03/08 09:20:36;;;;;;;2.45;1.00;;;;;;;18.69;42.67;99313.81;5029552;28;20580;-72
2023/03/08 09:23:01;;;;;;;2.80;1.15;;;;;;;18.57;42.71;99289.56;5030108;28;20041;-71
2023/03/08 09:25:27;;;;;;;5.00;1.20;;;;;;;18.68;42.57;99298.97;5030301;28;20037;-69
2023/03/08 09:27:52;;;;;;;2.47;1.00;;;;;;;18.66;42.51;99303.59;5029890;28;20052;-70
2023/03/08 09:30:18;;;;;;;3.33;1.30;;;;;;;18.72;43.19;99302.91;5029049;28;20041;-69
2023/03/08 09:32:43;;;;;;;1.65;1.10;;;;;;;18.74;43.76;99293.03;5030583;28;20041;-68
2023/03/08 09:35:09;;;;;;;7.60;1.48;;;;;;;18.73;44.00;99283.47;5030522;28;20725;-67
2023/03/08 09:37:35;;;;;;;2.92;1.10;;;;;;;18.78;43.78;99288.25;5030051;28;20029;-69
2023/03/08 09:40:01;;;;;;;2.70;1.05;;;;;;;18.74;43.83;99282.50;5030097;28;20063;-68
2023/03/08 09:42:31;;;;;;;3.38;1.30;;;;;;;18.84;43.70;99290.25;5021211;28;20033;-68
2023/03/08 09:45:08;;;;;;;3.03;1.50;;;;;;;18.89;43.70;99279.19;5034017;28;20060;-68
2023/03/08 09:47:58;;;;;;;5.20;1.50;;;;;;;18.94;43.89;99282.16;5034712;28;20041;-67
2023/03/08 09:50:33;;;;;;;3.90;1.30;;;;;;;18.94;44.08;99277.69;5034184;28;20045;-68
2023/03/08 09:53:37;;;;;;;3.20;1.30;;;;;;;18.96;44.18;99264.31;5050134;28;20048;-67
2023/03/08 09:56:23;;;;;;;2.17;1.08;;;;;;;18.98;43.78;99279.03;5034838;28;20064;-66
2023/03/08 09:59:04;;;;;;;5.55;1.70;;;;;;;19.00;42.81;99270.94;5035515;28;20041;-73
2023/03/08 10:01:39;;;;;;;4.65;1.40;;;;;;;19.03;43.23;99267.97;5035575;28;20447;-73
2023/03/08 10:04:42;;;;;;;2.22;1.13;;;;;;;18.98;43.17;99252.63;5034088;28;20099;-70
2023/03/08 10:07:23;;;;;;;5.32;1.45;;;;;;;18.98;42.73;99249.97;5037093;28;20043;-70
2023/03/08 10:10:28;;;;;;;2.00;1.10;;;;;;;19.01;43.26;99262.03;5034043;28;20435;-70
2023/03/08 10:12:53;;;;;;;;;;;;;;;19.03;43.38;99262.69;5035542;28;20041;-69
2023/03/08 10:15:21;;;;;;;2.90;1.30;;;;;;;19.02;43.39;99282.94;5035141;28;19962;-69
2023/03/08 10:17:54;;;;;;;3.28;1.33;;;;;;;19.01;43.43;99273.41;5034393;28;20057;-68
2023/03/08 10:20:24;;;;;;;3.20;1.38;;;;;;;19.04;43.45;99266.94;5035102;28;20438;-70
2023/03/08 10:22:58;;;;;;;4.18;1.48;;;;;;;19.00;43.41;99257.72;5024938;28;20036;-69
2023/03/08 10:25:30;;;;;;;2.63;1.35;;;;;;;19.03;43.48;99252.94;5033892;28;20048;-70
2023/03/08 10:27:58;;;;;;;3.20;1.23;;;;;;;19.06;43.24;99253.56;5034304;28;20287;-67
2023/03/08 10:30:32;;;;;;;2.38;1.27;;;;;;;19.04;43.19;99253.75;5034014;28;20059;-67
2023/03/08 10:32:59;;;;;;;3.08;1.30;;;;;;;19.06;43.13;99251.78;5034489;28;20108;-69
2023/03/08 10:35:36;;;;;;;3.22;1.30;;;;;;;19.08;43.11;99260.34;5033720;28;20044;-69
2023/03/08 10:38:03;;;;;;;4.28;1.38;;;;;;;19.08;42.90;99248.97;5033869;28;20072;-69
2023/03/08 10:40:29;;;;;;;4.63;1.40;;;;;;;19.09;42.88;99243.53;5034534;28;20389;-71
2023/03/08 10:43:02;;;;;;;4.38;1.40;;;;;;;19.10;42.40;99225.84;5032449;28;20025;-73
2023/03/08 10:45:28;;;;;;;3.83;1.58;;;;;;;19.09;42.10;99225.03;5034345;28;20069;-69
2023/03/08 10:47:59;;;;;;;5.18;1.60;;;;;;;19.10;41.87;99225.84;5033503;28;20051;-66
2023/03/08 10:50:36;;;;;;;3.88;1.80;;;;;;;19.06;41.39;99230.66;5031852;28;20029;-68
2023/03/08 10:53:19;;;;;;;3.78;1.70;;;;;;;19.09;40.97;99227.69;5033029;28;20044;-68
2023/03/08 10:55:50;;;;;;;4.68;1.70;;;;;;;19.08;40.94;99218.09;5032077;28;20044;-70
2023/03/08 10:58:36;;;;;;;3.67;1.90;;;;;;;19.14;40.71;99225.34;5034002;28;20385;-67
2023/03/08 11:01:21;;;;;;;7.07;2.05;;;;;;;19.19;40.73;99245.97;5032452;28;20053;-70
2023/03/08 11:04:00;;;;;;;6.60;1.80;;;;;;;19.18;40.67;99242.50;5031708;28;20041;-71
2023/03/08 11:06:26;;;;;;;9.07;2.00;;;;;;;19.25;40.21;99257.66;5032925;28;20548;-68
2023/03/08 11:08:59;;;;;;;4.65;1.90;;;;;;;19.20;40.03;99248.44;5033139;28;20087;-66
2023/03/08 11:11:26;;;;;;;5.38;2.20;;;;;;;19.24;40.02;99248.91;5031575;28;20056;-68
2023/03/08 11:13:52;;;;;;;5.57;2.20;;;;;;;19.22;39.71;99253.53;5032128;28;20065;-68
2023/03/08 11:16:33;;;;;;;5.85;2.20;;;;;;;19.19;39.32;99245.97;5031491;28;20090;-72
2023/03/08 11:18:58;;;;;;;5.53;2.10;;;;;;;19.23;39.41;99252.53;5031806;28;20052;-65
2023/03/08 11:21:39;;;;;;;5.07;2.30;;;;;;;19.16;39.53;99212.78;5030746;28;20037;-66
2023/03/08 11:24:20;;;;;;;4.72;2.30;;;;;;;19.20;39.08;99213.25;5032862;28;20634;-67
2023/03/08 11:27:07;;;;;;;6.72;2.40;;;;;;;19.17;39.20;99216.28;5031585;28;20044;-69
2023/03/08 11:29:43;;;;;;;5.55;2.20;;;;;;;19.17;39.25;99226.84;5033701;28;20599;-68
2023/03/08 11:32:35;;;;;;;3.97;1.90;;;;;;;19.14;39.24;99228.00;5033244;28;20028;-67
2023/03/08 11:35:30;;;;;;;7.78;2.35;;;;;;;19.14;39.10;99224.53;5032739;28;20036;-68
2023/03/08 11:38:21;;;;;;;4.10;1.95;;;;;;;19.13;38.99;99226.31;5033022;28;20030;-68